sensor_id;sensor_type;location;lat;lon;timestamp;temperature;humidity
24682;DHT22;12802;53.390;-2.328;2023-03-11T00:02:16;1.20;99.90
24682;DHT22;12802;53.390;-2.328;2023-03-11T00:04:41;1.20;99.90
24682;DHT22;12802;53.390;-2.328;2023-03-11T00:07:09;1.30;99.90
24682;DHT22;12802;53.390;-2.328;2023-03-11T00:09:36;1.30;99.90
24682;DHT22;12802;53.390;-2.328;2023-03-11T00:12:02;1.30;99.90
24682;DHT22;12802;53.390;-2.328;2023-03-11T00:14:28;1.30;99.90
24682;DHT22;12802;53.390;-2.328;2023-03-11T00:16:54;1.20;99.90
24682;DHT22;12802;53.390;-2.328;2023-03-11T00:19:20;1.10;99.90
24682;DHT22;12802;53.390;-2.328;2023-03-11T00:21:46;1.10;99.90
24682;DHT22;12802;53.390;-2.328;2023-03-11T00:24:12;1.20;99.90
24682;DHT22;12802;53.390;-2.328;2023-03-11T00:26:37;1.10;99.90
24682;DHT22;12802;53.390;-2.328;2023-03-11T00:29:03;1.10;99.90
24682;DHT22;12802;53.390;-2.328;2023-03-11T00:31:29;1.10;99.90
24682;DHT22;12802;53.390;-2.328;2023-03-11T00:33:55;1.20;99.90
24682;DHT22;12802;53.390;-2.328;2023-03-11T00:36:27;1.10;99.90
24682;DHT22;12802;53.390;-2.328;2023-03-11T00:38:56;1.20;99.90
24682;DHT22;12802;53.390;-2.328;2023-03-11T00:41:22;1.10;99.90
24682;DHT22;12802;53.390;-2.328;2023-03-11T00:43:48;1.10;99.90
24682;DHT22;12802;53.390;-2.328;2023-03-11T00:46:14;1.10;99.90
24682;DHT22;12802;53.390;-2.328;2023-03-11T00:48:40;1.10;99.90
24682;DHT22;12802;53.390;-2.328;2023-03-11T00:51:06;1.10;99.90
24682;DHT22;12802;53.390;-2.328;2023-03-11T00:53:32;1.10;99.90
24682;DHT22;12802;53.390;-2.328;2023-03-11T00:55:58;1.20;99.90
24682;DHT22;12802;53.390;-2.328;2023-03-11T00:58:30;1.30;99.90
24682;DHT22;12802;53.390;-2.328;2023-03-11T01:00:57;1.40;99.90
24682;DHT22;12802;53.390;-2.328;2023-03-11T01:03:23;1.30;99.90
24682;DHT22;12802;53.390;-2.328;2023-03-11T01:05:49;1.30;99.90
24682;DHT22;12802;53.390;-2.328;2023-03-11T01:08:14;1.30;99.90
24682;DHT22;12802;53.390;-2.328;2023-03-11T01:10:40;1.10;99.90
24682;DHT22;12802;53.390;-2.328;2023-03-11T01:13:06;1.00;99.90
24682;DHT22;12802;53.390;-2.328;2023-03-11T01:15:34;1.00;99.90
24682;DHT22;12802;53.390;-2.328;2023-03-11T01:18:01;1.10;99.90
24682;DHT22;12802;53.390;-2.328;2023-03-11T01:20:28;1.10;99.90
24682;DHT22;12802;53.390;-2.328;2023-03-11T01:22:54;1.00;99.90
24682;DHT22;12802;53.390;-2.328;2023-03-11T01:25:22;0.90;99.90
24682;DHT22;12802;53.390;-2.328;2023-03-11T01:27:49;0.90;99.90
24682;DHT22;12802;53.390;-2.328;2023-03-11T01:30:18;0.90;99.90
24682;DHT22;12802;53.390;-2.328;2023-03-11T01:32:45;1.00;99.90
24682;DHT22;12802;53.390;-2.328;2023-03-11T01:35:14;1.00;99.90
24682;DHT22;12802;53.390;-2.328;2023-03-11T01:37:40;1.00;99.90
24682;DHT22;12802;53.390;-2.328;2023-03-11T01:40:08;1.00;99.90
24682;DHT22;12802;53.390;-2.328;2023-03-11T01:42:36;1.00;99.90
24682;DHT22;12802;53.390;-2.328;2023-03-11T01:47:48;0.90;99.90
24682;DHT22;12802;53.390;-2.328;2023-03-11T01:50:14;0.90;99.90
24682;DHT22;12802;53.390;-2.328;2023-03-11T01:52:41;0.90;99.90
24682;DHT22;12802;53.390;-2.328;2023-03-11T01:55:08;0.90;99.90
24682;DHT22;12802;53.390;-2.328;2023-03-11T01:57:36;0.80;99.90
24682;DHT22;12802;53.390;-2.328;2023-03-11T02:00:03;0.80;99.90
24682;DHT22;12802;53.390;-2.328;2023-03-11T02:02:52;0.80;99.90
24682;DHT22;12802;53.390;-2.328;2023-03-11T02:05:23;0.70;99.90
24682;DHT22;12802;53.390;-2.328;2023-03-11T02:07:52;0.70;99.90
24682;DHT22;12802;53.390;-2.328;2023-03-11T02:10:20;0.70;99.90
24682;DHT22;12802;53.390;-2.328;2023-03-11T02:12:48;0.60;99.90
24682;DHT22;12802;53.390;-2.328;2023-03-11T02:15:21;0.60;99.90
24682;DHT22;12802;53.390;-2.328;2023-03-11T02:17:48;0.60;99.90
24682;DHT22;12802;53.390;-2.328;2023-03-11T02:20:19;0.60;99.90
24682;DHT22;12802;53.390;-2.328;2023-03-11T02:22:47;0.60;99.90
24682;DHT22;12802;53.390;-2.328;2023-03-11T02:26:16;0.50;99.90
24682;DHT22;12802;53.390;-2.328;2023-03-11T02:28:22;0.60;99.90
24682;DHT22;12802;53.390;-2.328;2023-03-11T02:30:49;0.60;99.90
24682;DHT22;12802;53.390;-2.328;2023-03-11T02:33:17;0.60;99.90
24682;DHT22;12802;53.390;-2.328;2023-03-11T02:35:45;0.60;99.90
24682;DHT22;12802;53.390;-2.328;2023-03-11T02:38:11;0.60;99.90
24682;DHT22;12802;53.390;-2.328;2023-03-11T02:40:46;0.50;99.90
24682;DHT22;12802;53.390;-2.328;2023-03-11T02:43:18;0.50;99.90
24682;DHT22;12802;53.390;-2.328;2023-03-11T02:45:47;0.50;99.90
24682;DHT22;12802;53.390;-2.328;2023-03-11T02:48:13;0.50;99.90
24682;DHT22;12802;53.390;-2.328;2023-03-11T02:50:43;0.40;99.90
24682;DHT22;12802;53.390;-2.328;2023-03-11T02:53:09;0.40;99.90
24682;DHT22;12802;53.390;-2.328;2023-03-11T02:55:35;0.20;99.90
24682;DHT22;12802;53.390;-2.328;2023-03-11T02:58:01;0.20;99.90
24682;DHT22;12802;53.390;-2.328;2023-03-11T03:00:27;0.10;99.90
24682;DHT22;12802;53.390;-2.328;2023-03-11T03:03:00;0.20;99.90
24682;DHT22;12802;53.390;-2.328;2023-03-11T03:05:27;0.20;99.90
24682;DHT22;12802;53.390;-2.328;2023-03-11T03:07:55;0.20;99.90
24682;DHT22;12802;53.390;-2.328;2023-03-11T03:10:22;0.30;99.90
24682;DHT22;12802;53.390;-2.328;2023-03-11T03:12:48;0.20;99.90
24682;DHT22;12802;53.390;-2.328;2023-03-11T03:15:15;0.30;99.90
24682;DHT22;12802;53.390;-2.328;2023-03-11T03:17:41;0.30;99.90
24682;DHT22;12802;53.390;-2.328;2023-03-11T03:20:09;0.30;99.90
24682;DHT22;12802;53.390;-2.328;2023-03-11T03:22:39;0.20;99.90
24682;DHT22;12802;53.390;-2.328;2023-03-11T03:25:06;0.10;99.90
24682;DHT22;12802;53.390;-2.328;2023-03-11T03:27:33;0.10;99.90
24682;DHT22;12802;53.390;-2.328;2023-03-11T03:29:59;0.10;99.90
24682;DHT22;12802;53.390;-2.328;2023-03-11T03:32:25;0.10;99.90
24682;DHT22;12802;53.390;-2.328;2023-03-11T03:34:51;0.10;99.90
24682;DHT22;12802;53.390;-2.328;2023-03-11T03:37:27;0.10;99.90
24682;DHT22;12802;53.390;-2.328;2023-03-11T03:39:53;0.00;99.90
24682;DHT22;12802;53.390;-2.328;2023-03-11T03:42:20;0.00;99.90
24682;DHT22;12802;53.390;-2.328;2023-03-11T03:44:46;0.00;99.90
24682;DHT22;12802;53.390;-2.328;2023-03-11T03:47:12;0.00;99.90
24682;DHT22;12802;53.390;-2.328;2023-03-11T03:49:38;0.00;99.90
24682;DHT22;12802;53.390;-2.328;2023-03-11T03:52:05;0.00;99.90
24682;DHT22;12802;53.390;-2.328;2023-03-11T03:54:31;0.00;99.90
24682;DHT22;12802;53.390;-2.328;2023-03-11T03:56:57;0.00;99.90
24682;DHT22;12802;53.390;-2.328;2023-03-11T03:59:23;0.00;99.90
24682;DHT22;12802;53.390;-2.328;2023-03-11T04:01:53;0.00;99.90
24682;DHT22;12802;53.390;-2.328;2023-03-11T04:04:20;0.10;99.90
24682;DHT22;12802;53.390;-2.328;2023-03-11T04:06:47;0.10;99.90
24682;DHT22;12802;53.390;-2.328;2023-03-11T04:09:14;0.10;99.90
24682;DHT22;12802;53.390;-2.328;2023-03-11T04:11:40;0.10;99.90
24682;DHT22;12802;53.390;-2.328;2023-03-11T04:14:06;0.10;99.90
24682;DHT22;12802;53.390;-2.328;2023-03-11T04:16:37;0.10;99.90
24682;DHT22;12802;53.390;-2.328;2023-03-11T04:19:08;0.00;99.90
24682;DHT22;12802;53.390;-2.328;2023-03-11T04:21:34;0.00;99.90
24682;DHT22;12802;53.390;-2.328;2023-03-11T04:24:01;0.10;99.90
24682;DHT22;12802;53.390;-2.328;2023-03-11T04:26:31;0.10;99.90
24682;DHT22;12802;53.390;-2.328;2023-03-11T04:28:57;0.00;99.90
24682;DHT22;12802;53.390;-2.328;2023-03-11T04:31:25;0.00;99.90
24682;DHT22;12802;53.390;-2.328;2023-03-11T04:33:51;0.00;99.90
24682;DHT22;12802;53.390;-2.328;2023-03-11T04:36:17;0.00;99.90
24682;DHT22;12802;53.390;-2.328;2023-03-11T04:38:43;-0.10;99.90
24682;DHT22;12802;53.390;-2.328;2023-03-11T04:41:11;-0.20;99.90
24682;DHT22;12802;53.390;-2.328;2023-03-11T04:43:39;-0.30;99.90
24682;DHT22;12802;53.390;-2.328;2023-03-11T04:46:05;-0.30;99.90
24682;DHT22;12802;53.390;-2.328;2023-03-11T04:48:31;-0.20;99.90
24682;DHT22;12802;53.390;-2.328;2023-03-11T04:50:57;-0.20;99.90
24682;DHT22;12802;53.390;-2.328;2023-03-11T04:53:23;-0.20;99.90
24682;DHT22;12802;53.390;-2.328;2023-03-11T04:55:49;-0.20;99.90
24682;DHT22;12802;53.390;-2.328;2023-03-11T04:58:16;-0.20;99.90
24682;DHT22;12802;53.390;-2.328;2023-03-11T05:00:45;-0.20;99.90
24682;DHT22;12802;53.390;-2.328;2023-03-11T05:03:12;-0.10;99.90
24682;DHT22;12802;53.390;-2.328;2023-03-11T05:05:38;-0.10;99.90
24682;DHT22;12802;53.390;-2.328;2023-03-11T05:08:04;-0.10;99.90
24682;DHT22;12802;53.390;-2.328;2023-03-11T05:10:31;0.00;99.90
24682;DHT22;12802;53.390;-2.328;2023-03-11T05:12:59;0.00;99.90
24682;DHT22;12802;53.390;-2.328;2023-03-11T05:15:30;0.00;99.90
24682;DHT22;12802;53.390;-2.328;2023-03-11T05:17:58;0.00;99.90
24682;DHT22;12802;53.390;-2.328;2023-03-11T05:20:24;-0.10;99.90
24682;DHT22;12802;53.390;-2.328;2023-03-11T05:22:50;-0.10;99.90
24682;DHT22;12802;53.390;-2.328;2023-03-11T05:25:17;-0.10;99.90
24682;DHT22;12802;53.390;-2.328;2023-03-11T05:27:43;-0.10;99.90
24682;DHT22;12802;53.390;-2.328;2023-03-11T05:30:09;0.00;99.90
24682;DHT22;12802;53.390;-2.328;2023-03-11T05:32:37;0.00;99.90
24682;DHT22;12802;53.390;-2.328;2023-03-11T05:35:05;0.00;99.90
24682;DHT22;12802;53.390;-2.328;2023-03-11T05:37:31;0.00;99.90
24682;DHT22;12802;53.390;-2.328;2023-03-11T05:39:58;0.00;99.90
24682;DHT22;12802;53.390;-2.328;2023-03-11T05:42:24;-0.10;99.90
24682;DHT22;12802;53.390;-2.328;2023-03-11T05:44:52;-0.20;99.90
24682;DHT22;12802;53.390;-2.328;2023-03-11T05:47:20;-0.20;99.90
24682;DHT22;12802;53.390;-2.328;2023-03-11T05:49:47;-0.10;99.90
24682;DHT22;12802;53.390;-2.328;2023-03-11T05:52:15;0.00;99.90
24682;DHT22;12802;53.390;-2.328;2023-03-11T05:54:41;0.00;99.90
24682;DHT22;12802;53.390;-2.328;2023-03-11T05:57:07;0.00;99.90
24682;DHT22;12802;53.390;-2.328;2023-03-11T05:59:33;0.00;99.90
24682;DHT22;12802;53.390;-2.328;2023-03-11T06:02:03;0.10;99.90
24682;DHT22;12802;53.390;-2.328;2023-03-11T06:04:29;0.10;99.90
24682;DHT22;12802;53.390;-2.328;2023-03-11T06:06:56;0.10;99.90
24682;DHT22;12802;53.390;-2.328;2023-03-11T06:09:24;0.00;99.90
24682;DHT22;12802;53.390;-2.328;2023-03-11T06:11:51;0.00;99.90
24682;DHT22;12802;53.390;-2.328;2023-03-11T06:14:19;0.00;99.90
24682;DHT22;12802;53.390;-2.328;2023-03-11T06:16:48;0.00;99.90
24682;DHT22;12802;53.390;-2.328;2023-03-11T06:19:14;0.10;99.90
24682;DHT22;12802;53.390;-2.328;2023-03-11T06:21:45;0.00;99.90
24682;DHT22;12802;53.390;-2.328;2023-03-11T06:24:10;0.00;99.90
24682;DHT22;12802;53.390;-2.328;2023-03-11T06:26:37;0.10;99.90
24682;DHT22;12802;53.390;-2.328;2023-03-11T06:29:03;0.10;99.90
24682;DHT22;12802;53.390;-2.328;2023-03-11T06:31:29;0.10;99.90
24682;DHT22;12802;53.390;-2.328;2023-03-11T06:34:02;0.10;99.90
24682;DHT22;12802;53.390;-2.328;2023-03-11T06:36:29;0.20;99.90
24682;DHT22;12802;53.390;-2.328;2023-03-11T06:38:55;0.20;99.90
24682;DHT22;12802;53.390;-2.328;2023-03-11T06:41:23;0.20;99.90
24682;DHT22;12802;53.390;-2.328;2023-03-11T06:43:49;0.30;99.90
24682;DHT22;12802;53.390;-2.328;2023-03-11T06:46:21;0.30;99.90
24682;DHT22;12802;53.390;-2.328;2023-03-11T06:48:48;0.30;99.90
24682;DHT22;12802;53.390;-2.328;2023-03-11T06:51:19;0.40;99.90
24682;DHT22;12802;53.390;-2.328;2023-03-11T06:53:50;0.50;99.90
24682;DHT22;12802;53.390;-2.328;2023-03-11T06:56:19;0.50;99.90
24682;DHT22;12802;53.390;-2.328;2023-03-11T06:58:49;0.50;99.90
24682;DHT22;12802;53.390;-2.328;2023-03-11T07:01:19;0.50;99.90
24682;DHT22;12802;53.390;-2.328;2023-03-11T07:03:46;0.60;99.90
24682;DHT22;12802;53.390;-2.328;2023-03-11T07:06:17;0.60;99.90
24682;DHT22;12802;53.390;-2.328;2023-03-11T07:08:49;0.60;99.90
24682;DHT22;12802;53.390;-2.328;2023-03-11T07:13:43;0.60;99.90
24682;DHT22;12802;53.390;-2.328;2023-03-11T07:16:14;0.60;99.90
24682;DHT22;12802;53.390;-2.328;2023-03-11T07:18:41;0.40;99.90
24682;DHT22;12802;53.390;-2.328;2023-03-11T07:21:08;0.30;99.90
24682;DHT22;12802;53.390;-2.328;2023-03-11T07:23:36;0.30;99.90
24682;DHT22;12802;53.390;-2.328;2023-03-11T07:26:02;0.20;99.90
24682;DHT22;12802;53.390;-2.328;2023-03-11T07:28:29;0.30;99.90
24682;DHT22;12802;53.390;-2.328;2023-03-11T07:30:55;0.40;99.90
24682;DHT22;12802;53.390;-2.328;2023-03-11T07:33:22;0.50;99.90
24682;DHT22;12802;53.390;-2.328;2023-03-11T07:35:50;0.50;99.90
24682;DHT22;12802;53.390;-2.328;2023-03-11T07:38:17;0.50;99.90
24682;DHT22;12802;53.390;-2.328;2023-03-11T07:40:44;0.60;99.90
24682;DHT22;12802;53.390;-2.328;2023-03-11T07:43:10;0.60;99.90
24682;DHT22;12802;53.390;-2.328;2023-03-11T07:45:36;0.60;99.90
24682;DHT22;12802;53.390;-2.328;2023-03-11T07:48:02;0.70;99.90
24682;DHT22;12802;53.390;-2.328;2023-03-11T07:50:27;0.70;99.90
24682;DHT22;12802;53.390;-2.328;2023-03-11T07:52:53;0.70;99.90
24682;DHT22;12802;53.390;-2.328;2023-03-11T07:55:19;0.80;99.90
24682;DHT22;12802;53.390;-2.328;2023-03-11T07:57:48;0.90;99.90
24682;DHT22;12802;53.390;-2.328;2023-03-11T08:00:14;1.00;99.90
24682;DHT22;12802;53.390;-2.328;2023-03-11T08:02:40;1.00;99.90
24682;DHT22;12802;53.390;-2.328;2023-03-11T08:05:06;1.00;99.90
24682;DHT22;12802;53.390;-2.328;2023-03-11T08:07:32;1.10;99.90
24682;DHT22;12802;53.390;-2.328;2023-03-11T08:09:58;1.20;99.90
24682;DHT22;12802;53.390;-2.328;2023-03-11T08:12:24;1.30;99.90
24682;DHT22;12802;53.390;-2.328;2023-03-11T08:14:49;1.50;99.90
24682;DHT22;12802;53.390;-2.328;2023-03-11T08:17:15;1.60;99.90
24682;DHT22;12802;53.390;-2.328;2023-03-11T08:19:41;1.80;99.90
24682;DHT22;12802;53.390;-2.328;2023-03-11T08:22:07;2.00;99.90
24682;DHT22;12802;53.390;-2.328;2023-03-11T08:24:32;2.20;99.90
24682;DHT22;12802;53.390;-2.328;2023-03-11T08:26:58;2.30;99.90
24682;DHT22;12802;53.390;-2.328;2023-03-11T08:29:24;2.30;99.90
24682;DHT22;12802;53.390;-2.328;2023-03-11T08:31:50;2.40;99.90
24682;DHT22;12802;53.390;-2.328;2023-03-11T08:34:16;2.50;99.90
24682;DHT22;12802;53.390;-2.328;2023-03-11T08:36:42;2.60;99.90
24682;DHT22;12802;53.390;-2.328;2023-03-11T08:39:08;2.60;99.90
24682;DHT22;12802;53.390;-2.328;2023-03-11T08:41:34;2.70;99.90
24682;DHT22;12802;53.390;-2.328;2023-03-11T08:43:59;2.90;99.90
24682;DHT22;12802;53.390;-2.328;2023-03-11T08:46:28;3.00;99.90
24682;DHT22;12802;53.390;-2.328;2023-03-11T08:48:55;3.10;99.90
24682;DHT22;12802;53.390;-2.328;2023-03-11T08:51:23;3.10;99.90
24682;DHT22;12802;53.390;-2.328;2023-03-11T08:53:49;3.20;99.90
24682;DHT22;12802;53.390;-2.328;2023-03-11T08:56:15;3.30;99.90
24682;DHT22;12802;53.390;-2.328;2023-03-11T08:58:41;3.30;99.90
24682;DHT22;12802;53.390;-2.328;2023-03-11T09:01:07;3.40;99.90
24682;DHT22;12802;53.390;-2.328;2023-03-11T09:03:34;3.60;99.90
24682;DHT22;12802;53.390;-2.328;2023-03-11T09:06:04;3.90;99.90
24682;DHT22;12802;53.390;-2.328;2023-03-11T09:08:31;4.10;99.90
24682;DHT22;12802;53.390;-2.328;2023-03-11T09:10:56;3.90;99.90
24682;DHT22;12802;53.390;-2.328;2023-03-11T09:13:22;3.90;99.90
24682;DHT22;12802;53.390;-2.328;2023-03-11T09:15:49;3.80;99.90
24682;DHT22;12802;53.390;-2.328;2023-03-11T09:18:16;3.90;99.90
24682;DHT22;12802;53.390;-2.328;2023-03-11T09:20:42;4.00;99.90
24682;DHT22;12802;53.390;-2.328;2023-03-11T09:23:10;4.40;99.90
24682;DHT22;12802;53.390;-2.328;2023-03-11T09:25:36;4.60;99.90
24682;DHT22;12802;53.390;-2.328;2023-03-11T09:28:02;4.90;99.90
24682;DHT22;12802;53.390;-2.328;2023-03-11T09:30:28;4.80;99.90
24682;DHT22;12802;53.390;-2.328;2023-03-11T09:32:54;4.90;99.90
24682;DHT22;12802;53.390;-2.328;2023-03-11T09:35:20;5.00;99.90
24682;DHT22;12802;53.390;-2.328;2023-03-11T09:37:46;5.00;99.90
24682;DHT22;12802;53.390;-2.328;2023-03-11T09:40:16;5.10;99.90
24682;DHT22;12802;53.390;-2.328;2023-03-11T09:43:23;5.20;99.90
24682;DHT22;12802;53.390;-2.328;2023-03-11T09:46:33;5.30;99.90
24682;DHT22;12802;53.390;-2.328;2023-03-11T09:51:41;5.50;99.90
24682;DHT22;12802;53.390;-2.328;2023-03-11T09:54:12;5.70;99.90
24682;DHT22;12802;53.390;-2.328;2023-03-11T09:56:40;5.70;99.90
24682;DHT22;12802;53.390;-2.328;2023-03-11T09:59:12;5.90;99.90
24682;DHT22;12802;53.390;-2.328;2023-03-11T10:01:42;6.20;99.90
24682;DHT22;12802;53.390;-2.328;2023-03-11T10:04:29;6.40;99.90
24682;DHT22;12802;53.390;-2.328;2023-03-11T10:06:56;6.70;99.90
24682;DHT22;12802;53.390;-2.328;2023-03-11T10:09:43;6.80;99.90
24682;DHT22;12802;53.390;-2.328;2023-03-11T10:18:23;5.90;99.90
24682;DHT22;12802;53.390;-2.328;2023-03-11T10:28:47;6.50;99.90
24682;DHT22;12802;53.390;-2.328;2023-03-11T10:31:30;6.60;99.90
24682;DHT22;12802;53.390;-2.328;2023-03-11T10:34:02;6.80;99.90
24682;DHT22;12802;53.390;-2.328;2023-03-11T10:36:39;7.30;99.90
24682;DHT22;12802;53.390;-2.328;2023-03-11T10:39:09;7.10;99.90
24682;DHT22;12802;53.390;-2.328;2023-03-11T10:41:43;6.90;99.90
24682;DHT22;12802;53.390;-2.328;2023-03-11T10:44:14;6.90;99.90
24682;DHT22;12802;53.390;-2.328;2023-03-11T10:46:40;6.80;99.90
24682;DHT22;12802;53.390;-2.328;2023-03-11T10:49:14;6.70;99.90
24682;DHT22;12802;53.390;-2.328;2023-03-11T10:51:46;6.80;99.90
24682;DHT22;12802;53.390;-2.328;2023-03-11T10:54:30;7.00;99.90
24682;DHT22;12802;53.390;-2.328;2023-03-11T10:56:59;7.10;99.90
24682;DHT22;12802;53.390;-2.328;2023-03-11T10:59:29;6.60;99.90
24682;DHT22;12802;53.390;-2.328;2023-03-11T11:02:01;6.60;99.90
24682;DHT22;12802;53.390;-2.328;2023-03-11T11:04:35;6.80;99.90
24682;DHT22;12802;53.390;-2.328;2023-03-11T11:17:47;7.80;99.90
24682;DHT22;12802;53.390;-2.328;2023-03-11T11:20:18;7.70;99.90
24682;DHT22;12802;53.390;-2.328;2023-03-11T11:22:51;7.60;99.90
24682;DHT22;12802;53.390;-2.328;2023-03-11T11:25:36;7.50;99.90
24682;DHT22;12802;53.390;-2.328;2023-03-11T11:28:15;7.90;99.90
24682;DHT22;12802;53.390;-2.328;2023-03-11T11:30:55;7.80;99.90
24682;DHT22;12802;53.390;-2.328;2023-03-11T11:33:28;8.00;99.90
24682;DHT22;12802;53.390;-2.328;2023-03-11T11:35:58;7.80;99.90
24682;DHT22;12802;53.390;-2.328;2023-03-11T11:38:26;7.70;99.90
24682;DHT22;12802;53.390;-2.328;2023-03-11T11:40:55;7.70;99.90
24682;DHT22;12802;53.390;-2.328;2023-03-11T11:55:02;7.50;99.90
24682;DHT22;12802;53.390;-2.328;2023-03-11T11:57:28;7.20;99.90
24682;DHT22;12802;53.390;-2.328;2023-03-11T11:59:54;7.30;99.90
24682;DHT22;12802;53.390;-2.328;2023-03-11T12:02:48;7.30;99.90
24682;DHT22;12802;53.390;-2.328;2023-03-11T12:05:29;7.30;99.90
24682;DHT22;12802;53.390;-2.328;2023-03-11T12:13:43;7.20;99.90
24682;DHT22;12802;53.390;-2.328;2023-03-11T12:16:30;7.00;99.90
24682;DHT22;12802;53.390;-2.328;2023-03-11T12:19:13;7.00;99.90
24682;DHT22;12802;53.390;-2.328;2023-03-11T12:27:39;7.40;99.90
24682;DHT22;12802;53.390;-2.328;2023-03-11T12:30:05;7.60;99.90
24682;DHT22;12802;53.390;-2.328;2023-03-11T12:32:46;7.60;99.90
24682;DHT22;12802;53.390;-2.328;2023-03-11T12:35:25;7.40;99.90
24682;DHT22;12802;53.390;-2.328;2023-03-11T12:40:49;7.40;99.90
24682;DHT22;12802;53.390;-2.328;2023-03-11T12:50:55;7.20;99.90
24682;DHT22;12802;53.390;-2.328;2023-03-11T12:53:46;7.20;99.90
24682;DHT22;12802;53.390;-2.328;2023-03-11T12:59:12;6.80;99.90
24682;DHT22;12802;53.390;-2.328;2023-03-11T13:08:33;7.10;99.90
24682;DHT22;12802;53.390;-2.328;2023-03-11T13:10:45;6.90;99.90
24682;DHT22;12802;53.390;-2.328;2023-03-11T13:18:37;7.00;99.90
24682;DHT22;12802;53.390;-2.328;2023-03-11T13:21:04;7.10;99.90
24682;DHT22;12802;53.390;-2.328;2023-03-11T13:23:49;7.20;99.90
24682;DHT22;12802;53.390;-2.328;2023-03-11T13:26:28;7.20;99.90
24682;DHT22;12802;53.390;-2.328;2023-03-11T13:29:03;7.20;99.90
24682;DHT22;12802;53.390;-2.328;2023-03-11T13:31:56;7.10;99.90
24682;DHT22;12802;53.390;-2.328;2023-03-11T13:40:10;6.80;99.90
24682;DHT22;12802;53.390;-2.328;2023-03-11T13:42:46;6.70;99.90
24682;DHT22;12802;53.390;-2.328;2023-03-11T13:45:31;6.70;99.90
24682;DHT22;12802;53.390;-2.328;2023-03-11T13:50:42;6.90;99.90
24682;DHT22;12802;53.390;-2.328;2023-03-11T13:53:18;6.80;99.90
24682;DHT22;12802;53.390;-2.328;2023-03-11T13:55:45;6.80;99.90
24682;DHT22;12802;53.390;-2.328;2023-03-11T13:58:19;6.70;99.90
24682;DHT22;12802;53.390;-2.328;2023-03-11T14:00:47;6.60;99.90
24682;DHT22;12802;53.390;-2.328;2023-03-11T14:03:14;6.60;99.90
24682;DHT22;12802;53.390;-2.328;2023-03-11T14:05:46;6.60;99.90
24682;DHT22;12802;53.390;-2.328;2023-03-11T14:10:38;6.40;99.90
24682;DHT22;12802;53.390;-2.328;2023-03-11T14:15:42;6.50;99.90
24682;DHT22;12802;53.390;-2.328;2023-03-11T14:18:37;6.60;99.90
24682;DHT22;12802;53.390;-2.328;2023-03-11T14:21:06;6.70;99.90
24682;DHT22;12802;53.390;-2.328;2023-03-11T14:23:40;6.70;99.90
24682;DHT22;12802;53.390;-2.328;2023-03-11T14:26:11;6.60;99.90
24682;DHT22;12802;53.390;-2.328;2023-03-11T14:28:41;6.60;99.90
24682;DHT22;12802;53.390;-2.328;2023-03-11T14:31:30;6.60;99.90
24682;DHT22;12802;53.390;-2.328;2023-03-11T14:36:50;6.20;99.90
24682;DHT22;12802;53.390;-2.328;2023-03-11T14:44:36;5.90;99.90
24682;DHT22;12802;53.390;-2.328;2023-03-11T14:47:13;5.80;99.90
24682;DHT22;12802;53.390;-2.328;2023-03-11T14:49:41;5.80;99.90
24682;DHT22;12802;53.390;-2.328;2023-03-11T14:52:15;5.80;99.90
24682;DHT22;12802;53.390;-2.328;2023-03-11T14:54:42;5.70;99.90
24682;DHT22;12802;53.390;-2.328;2023-03-11T14:57:23;5.80;99.90
24682;DHT22;12802;53.390;-2.328;2023-03-11T14:59:52;5.60;99.90
24682;DHT22;12802;53.390;-2.328;2023-03-11T15:05:37;5.60;99.90
24682;DHT22;12802;53.390;-2.328;2023-03-11T15:08:07;5.60;99.90
24682;DHT22;12802;53.390;-2.328;2023-03-11T15:10:33;5.40;99.90
24682;DHT22;12802;53.390;-2.328;2023-03-11T15:13:27;5.30;99.90
24682;DHT22;12802;53.390;-2.328;2023-03-11T15:15:59;5.20;99.90
24682;DHT22;12802;53.390;-2.328;2023-03-11T15:18:29;5.20;99.90
24682;DHT22;12802;53.390;-2.328;2023-03-11T15:23:35;5.10;99.90
24682;DHT22;12802;53.390;-2.328;2023-03-11T15:26:02;5.00;99.90
24682;DHT22;12802;53.390;-2.328;2023-03-11T15:28:33;5.00;99.90
24682;DHT22;12802;53.390;-2.328;2023-03-11T15:31:28;4.90;99.90
24682;DHT22;12802;53.390;-2.328;2023-03-11T15:34:08;4.90;99.90
24682;DHT22;12802;53.390;-2.328;2023-03-11T15:36:36;4.80;99.90
24682;DHT22;12802;53.390;-2.328;2023-03-11T15:39:26;4.70;99.90
24682;DHT22;12802;53.390;-2.328;2023-03-11T15:44:39;4.50;99.90
24682;DHT22;12802;53.390;-2.328;2023-03-11T15:47:24;4.50;99.90
24682;DHT22;12802;53.390;-2.328;2023-03-11T15:49:49;4.50;99.90
24682;DHT22;12802;53.390;-2.328;2023-03-11T15:52:17;4.60;99.90
24682;DHT22;12802;53.390;-2.328;2023-03-11T15:54:44;4.50;99.90
24682;DHT22;12802;53.390;-2.328;2023-03-11T15:57:26;4.40;99.90
24682;DHT22;12802;53.390;-2.328;2023-03-11T15:59:54;4.30;99.90
24682;DHT22;12802;53.390;-2.328;2023-03-11T16:02:26;4.40;99.90
24682;DHT22;12802;53.390;-2.328;2023-03-11T16:04:54;4.30;99.90
24682;DHT22;12802;53.390;-2.328;2023-03-11T16:07:20;4.30;99.90
24682;DHT22;12802;53.390;-2.328;2023-03-11T16:09:46;4.30;99.90
24682;DHT22;12802;53.390;-2.328;2023-03-11T16:12:20;4.20;99.90
24682;DHT22;12802;53.390;-2.328;2023-03-11T16:14:47;4.10;99.90
24682;DHT22;12802;53.390;-2.328;2023-03-11T16:17:13;4.00;99.90
24682;DHT22;12802;53.390;-2.328;2023-03-11T16:19:41;4.00;99.90
24682;DHT22;12802;53.390;-2.328;2023-03-11T16:22:20;3.90;99.90
24682;DHT22;12802;53.390;-2.328;2023-03-11T16:24:48;3.80;99.90
24682;DHT22;12802;53.390;-2.328;2023-03-11T16:27:16;3.80;99.90
24682;DHT22;12802;53.390;-2.328;2023-03-11T16:29:43;3.70;99.90
24682;DHT22;12802;53.390;-2.328;2023-03-11T16:32:09;3.80;99.90
24682;DHT22;12802;53.390;-2.328;2023-03-11T16:34:37;3.70;99.90
24682;DHT22;12802;53.390;-2.328;2023-03-11T16:37:04;3.80;99.90
24682;DHT22;12802;53.390;-2.328;2023-03-11T16:39:30;3.80;99.90
24682;DHT22;12802;53.390;-2.328;2023-03-11T16:41:56;3.70;99.90
24682;DHT22;12802;53.390;-2.328;2023-03-11T16:44:22;3.70;99.90
24682;DHT22;12802;53.390;-2.328;2023-03-11T16:46:48;3.60;99.90
24682;DHT22;12802;53.390;-2.328;2023-03-11T16:49:13;3.70;99.90
24682;DHT22;12802;53.390;-2.328;2023-03-11T16:51:39;3.70;99.90
24682;DHT22;12802;53.390;-2.328;2023-03-11T16:54:05;3.70;99.90
24682;DHT22;12802;53.390;-2.328;2023-03-11T16:56:31;3.60;99.90
24682;DHT22;12802;53.390;-2.328;2023-03-11T16:58:56;3.70;99.90
24682;DHT22;12802;53.390;-2.328;2023-03-11T17:01:22;3.70;99.90
24682;DHT22;12802;53.390;-2.328;2023-03-11T17:03:49;3.70;99.90
24682;DHT22;12802;53.390;-2.328;2023-03-11T17:06:16;3.80;99.90
24682;DHT22;12802;53.390;-2.328;2023-03-11T17:08:42;3.70;99.90
24682;DHT22;12802;53.390;-2.328;2023-03-11T17:11:21;3.70;99.90
24682;DHT22;12802;53.390;-2.328;2023-03-11T17:13:47;3.70;99.90
24682;DHT22;12802;53.390;-2.328;2023-03-11T17:16:13;3.70;99.90
24682;DHT22;12802;53.390;-2.328;2023-03-11T17:18:39;3.70;99.90
24682;DHT22;12802;53.390;-2.328;2023-03-11T17:21:11;3.70;99.90
24682;DHT22;12802;53.390;-2.328;2023-03-11T17:23:37;3.60;99.90
24682;DHT22;12802;53.390;-2.328;2023-03-11T17:26:10;3.60;99.90
24682;DHT22;12802;53.390;-2.328;2023-03-11T17:28:36;3.60;99.90
24682;DHT22;12802;53.390;-2.328;2023-03-11T17:31:05;3.70;99.90
24682;DHT22;12802;53.390;-2.328;2023-03-11T17:33:32;3.70;99.90
24682;DHT22;12802;53.390;-2.328;2023-03-11T17:36:03;3.80;99.90